Time;durP1;ratioP1;P1;durP2;ratioP2;P2;SDS_P1;SDS_P2;PMS_P1;PMS_P2;Temp;Humidity;BMP_temperature;BMP_pressure;BME280_temperature;BME280_humidity;BME280_pressure;Samples;Min_cycle;Max_cycle;Signal;HPM_P1;HPM_P2
2023/12/18 00:00:12;;;;;;;11.70;5.50;;;5.50;99.90;;;;;;4996223;28;20226;-75
2023/12/18 00:02:37;;;;;;;8.57;4.83;;;5.50;99.90;;;;;;4983153;28;20230;-75
2023/12/18 00:05:03;;;;;;;7.97;5.03;;;5.50;99.90;;;;;;4980084;28;20461;-74
2023/12/18 00:07:29;;;;;;;10.53;5.60;;;5.50;99.90;;;;;;4997393;28;20217;-74
2023/12/18 00:09:54;;;;;;;7.20;4.40;;;5.50;99.90;;;;;;5000468;28;20304;-74
2023/12/18 00:12:20;;;;;;;6.70;4.03;;;5.50;99.90;;;;;;4982510;28;20229;-74
2023/12/18 00:14:46;;;;;;;9.70;5.67;;;5.50;99.90;;;;;;5001496;28;20217;-75
2023/12/18 00:17:12;;;;;;;9.33;5.07;;;5.50;99.90;;;;;;4984016;28;20230;-75
2023/12/18 00:19:37;;;;;;;9.13;5.03;;;5.50;99.90;;;;;;4997396;28;20206;-75
2023/12/18 00:22:03;;;;;;;9.27;4.40;;;5.40;99.90;;;;;;4981467;28;20871;-75
2023/12/18 00:24:29;;;;;;;7.57;4.70;;;5.40;99.90;;;;;;5000039;28;20252;-75
2023/12/18 00:26:55;;;;;;;7.90;4.33;;;5.40;99.90;;;;;;4998340;28;20232;-75
2023/12/18 00:29:20;;;;;;;8.80;5.00;;;5.40;99.90;;;;;;4981914;28;20237;-75
2023/12/18 00:31:48;;;;;;;10.80;5.57;;;5.40;99.90;;;;;;4993115;28;20210;-74
2023/12/18 00:34:13;;;;;;;9.23;4.80;;;5.40;99.90;;;;;;4993089;28;20258;-74
2023/12/18 00:36:39;;;;;;;6.33;4.43;;;5.40;99.90;;;;;;4986400;28;20501;-74
2023/12/18 00:39:05;;;;;;;7.10;4.40;;;5.40;99.90;;;;;;4983856;28;20455;-75
2023/12/18 00:41:32;;;;;;;8.43;5.00;;;5.40;99.90;;;;;;4992039;28;20457;-74
2023/12/18 00:43:57;;;;;;;8.57;5.53;;;5.40;99.90;;;;;;4997539;28;20445;-74
2023/12/18 00:46:25;;;;;;;8.73;5.33;;;5.30;99.90;;;;;;4996078;28;20885;-75
2023/12/18 00:48:51;;;;;;;10.47;4.83;;;5.30;99.90;;;;;;4984670;28;20491;-74
2023/12/18 00:51:19;;;;;;;7.93;4.70;;;5.30;99.90;;;;;;4990194;28;20524;-73
2023/12/18 00:53:45;;;;;;;6.60;4.40;;;5.30;99.90;;;;;;5002326;28;20210;-75
2023/12/18 00:56:10;;;;;;;6.07;4.20;;;5.20;99.90;;;;;;4988574;28;20522;-74
2023/12/18 00:58:36;;;;;;;7.83;4.03;;;5.20;99.90;;;;;;4998623;28;20221;-74
2023/12/18 01:01:02;;;;;;;8.00;5.07;;;5.30;99.90;;;;;;4997021;28;20226;-74
2023/12/18 01:03:28;;;;;;;8.20;5.00;;;5.30;99.90;;;;;;4987773;28;20232;-75
2023/12/18 01:05:54;;;;;;;9.70;4.80;;;5.20;99.90;;;;;;4995108;28;20249;-75
2023/12/18 01:08:20;;;;;;;5.20;4.10;;;5.20;99.90;;;;;;4994150;28;20482;-75
2023/12/18 01:10:45;;;;;;;7.73;4.50;;;5.20;99.90;;;;;;4999894;28;20256;-75
2023/12/18 01:13:11;;;;;;;7.90;5.07;;;5.20;99.90;;;;;;4995206;28;20223;-75
2023/12/18 01:15:37;;;;;;;7.77;4.80;;;5.20;99.90;;;;;;4999462;28;20246;-75
2023/12/18 01:18:03;;;;;;;9.00;5.57;;;5.20;99.90;;;;;;4995472;28;20226;-75
2023/12/18 01:20:28;;;;;;;10.00;6.40;;;5.20;99.90;;;;;;4990862;28;20207;-75
2023/12/18 01:22:54;;;;;;;9.03;7.30;;;5.10;99.90;;;;;;4991929;28;20631;-74
2023/12/18 01:25:19;;;;;;;10.00;6.93;;;5.10;99.90;;;;;;4997619;28;20224;-74
2023/12/18 01:27:45;;;;;;;13.47;7.97;;;5.00;99.90;;;;;;4991781;28;20215;-75
2023/12/18 01:30:11;;;;;;;9.87;6.60;;;5.10;99.90;;;;;;4992067;28;20236;-75
2023/12/18 01:32:37;;;;;;;13.07;8.57;;;5.10;99.90;;;;;;5003372;28;20233;-75
2023/12/18 01:35:03;;;;;;;8.80;7.20;;;5.10;99.90;;;;;;4987809;28;20468;-75
2023/12/18 01:37:29;;;;;;;11.83;7.10;;;5.10;99.90;;;;;;5000543;28;20304;-75
2023/12/18 01:39:54;;;;;;;9.83;6.53;;;5.00;99.90;;;;;;4995682;28;21054;-74
2023/12/18 01:42:20;;;;;;;12.70;7.00;;;5.00;99.90;;;;;;4982149;28;20221;-73
2023/12/18 01:44:48;;;;;;;13.67;7.93;;;5.00;99.90;;;;;;5000979;28;20246;-75
2023/12/18 01:47:15;;;;;;;9.17;6.70;;;4.90;99.90;;;;;;4995890;28;20743;-75
2023/12/18 01:49:41;;;;;;;11.77;7.30;;;4.80;99.90;;;;;;5001335;28;20469;-76
2023/12/18 01:52:07;;;;;;;10.50;6.80;;;4.70;99.90;;;;;;5002879;28;20548;-75
2023/12/18 01:54:34;;;;;;;11.30;6.60;;;4.70;99.90;;;;;;4986315;28;21049;-75
2023/12/18 01:57:01;;;;;;;9.17;6.87;;;4.80;99.90;;;;;;4992671;28;20499;-75
2023/12/18 01:59:27;;;;;;;11.17;8.40;;;4.80;99.90;;;;;;4998129;28;21053;-74
2023/12/18 02:01:53;;;;;;;11.73;7.20;;;4.70;99.90;;;;;;4984902;28;20569;-74
2023/12/18 02:04:19;;;;;;;8.13;6.00;;;4.60;99.90;;;;;;4998644;28;20523;-75
2023/12/18 02:06:46;;;;;;;11.47;6.37;;;4.70;99.90;;;;;;4994872;28;20222;-75
2023/12/18 02:09:12;;;;;;;7.50;6.27;;;4.70;99.90;;;;;;4984148;28;20489;-74
2023/12/18 02:11:38;;;;;;;10.27;7.00;;;4.80;99.90;;;;;;4985982;28;20452;-74
2023/12/18 02:14:05;;;;;;;9.97;6.50;;;4.80;99.90;;;;;;4984065;28;20322;-75
2023/12/18 02:16:31;;;;;;;11.40;7.40;;;4.80;99.90;;;;;;5003144;28;20462;-75
2023/12/18 02:18:56;;;;;;;12.20;6.40;;;4.80;99.90;;;;;;5002391;28;20453;-74
2023/12/18 02:21:22;;;;;;;8.77;6.73;;;4.70;99.90;;;;;;4981907;28;20219;-74
2023/12/18 02:23:49;;;;;;;11.77;5.60;;;4.70;99.90;;;;;;5002589;28;20629;-75
2023/12/18 02:26:16;;;;;;;9.70;6.20;;;4.70;99.90;;;;;;4971996;28;20239;-76
2023/12/18 02:28:46;;;;;;;9.43;5.97;;;4.70;99.90;;;;;;4990917;28;20484;-75
2023/12/18 02:31:15;;;;;;;9.57;6.13;;;4.60;99.90;;;;;;4996154;28;20555;-75
2023/12/18 02:33:42;;;;;;;8.80;5.90;;;4.70;99.90;;;;;;5002465;28;20460;-75
2023/12/18 02:36:08;;;;;;;7.83;5.57;;;4.60;99.90;;;;;;4986076;28;20544;-75
2023/12/18 02:38:34;;;;;;;9.27;6.10;;;4.70;99.90;;;;;;5002795;28;20488;-75
2023/12/18 02:41:00;;;;;;;11.43;7.23;;;4.70;99.90;;;;;;4990144;28;20493;-75
2023/12/18 02:43:25;;;;;;;8.53;5.97;;;4.70;99.90;;;;;;5006934;28;20260;-75
2023/12/18 02:45:51;;;;;;;8.97;6.53;;;4.70;99.90;;;;;;5010198;28;20472;-75
2023/12/18 02:48:17;;;;;;;7.73;5.93;;;4.60;99.90;;;;;;5005704;28;20218;-74
2023/12/18 02:50:43;;;;;;;9.03;6.80;;;4.60;99.90;;;;;;5005862;28;20224;-74
2023/12/18 02:53:08;;;;;;;10.10;5.77;;;4.60;99.90;;;;;;5007740;28;20279;-75
2023/12/18 02:55:34;;;;;;;7.70;5.20;;;4.60;99.90;;;;;;5000434;28;20206;-75
2023/12/18 02:58:00;;;;;;;7.43;6.07;;;4.60;99.90;;;;;;5001491;28;20214;-75
2023/12/18 03:00:26;;;;;;;8.57;5.27;;;4.50;99.90;;;;;;4993134;28;20218;-75
2023/12/18 03:02:51;;;;;;;7.67;5.77;;;4.50;99.90;;;;;;4988662;28;20613;-75
2023/12/18 03:05:17;;;;;;;10.27;6.50;;;4.50;99.90;;;;;;4982900;28;20253;-75
2023/12/18 03:07:43;;;;;;;11.40;5.77;;;4.50;99.90;;;;;;5002220;28;20237;-75
2023/12/18 03:10:08;;;;;;;10.47;7.00;;;4.50;99.90;;;;;;4992710;28;20226;-75
2023/12/18 03:12:34;;;;;;;6.93;5.40;;;4.50;99.90;;;;;;4993488;28;20847;-75
2023/12/18 03:15:00;;;;;;;11.50;6.90;;;4.50;99.90;;;;;;4991938;28;20253;-75
2023/12/18 03:17:25;;;;;;;8.17;5.40;;;4.50;99.90;;;;;;4990129;28;20276;-75
2023/12/18 03:19:51;;;;;;;12.13;5.97;;;4.40;99.90;;;;;;4998202;28;20718;-75
2023/12/18 03:22:17;;;;;;;10.60;6.57;;;4.40;99.90;;;;;;4994538;28;20210;-76
2023/12/18 03:24:43;;;;;;;8.83;6.07;;;4.40;99.90;;;;;;4994636;28;20778;-75
2023/12/18 03:27:09;;;;;;;9.00;6.40;;;4.40;99.90;;;;;;4994114;28;20222;-75
2023/12/18 03:29:35;;;;;;;9.50;6.10;;;4.30;99.90;;;;;;4986288;28;20696;-75
2023/12/18 03:32:03;;;;;;;11.70;7.33;;;4.40;99.90;;;;;;5000508;28;20471;-76
2023/12/18 03:34:30;;;;;;;11.90;5.90;;;4.40;99.90;;;;;;4997180;28;20229;-75
2023/12/18 03:36:55;;;;;;;11.13;6.00;;;4.40;99.90;;;;;;5004193;28;20481;-75
2023/12/18 03:39:21;;;;;;;8.87;5.27;;;4.40;99.90;;;;;;4996278;28;20524;-76
2023/12/18 03:41:47;;;;;;;9.17;6.13;;;4.40;99.90;;;;;;4987451;28;20218;-75
2023/12/18 03:44:12;;;;;;;8.27;5.03;;;4.40;99.90;;;;;;4974140;28;20293;-75
2023/12/18 03:46:38;;;;;;;9.43;5.97;;;4.20;99.90;;;;;;5000652;28;20229;-75
2023/12/18 03:49:04;;;;;;;10.57;6.87;;;4.30;99.90;;;;;;4988419;28;20234;-75
2023/12/18 03:51:29;;;;;;;12.20;5.53;;;4.30;99.90;;;;;;4994928;28;20214;-75
2023/12/18 03:53:55;;;;;;;8.90;5.73;;;4.30;99.90;;;;;;4987865;28;20685;-75
2023/12/18 03:56:21;;;;;;;13.60;6.30;;;4.30;99.90;;;;;;4996645;28;20219;-75
2023/12/18 03:58:46;;;;;;;13.90;7.10;;;4.30;99.90;;;;;;5001991;28;20269;-75
2023/12/18 04:01:12;;;;;;;9.20;5.50;;;4.30;99.90;;;;;;4992092;28;20226;-75
2023/12/18 04:03:38;;;;;;;9.10;5.33;;;4.30;99.90;;;;;;4988877;28;20218;-75
2023/12/18 04:06:07;;;;;;;10.53;6.03;;;4.30;99.90;;;;;;4984597;28;20234;-75
2023/12/18 04:08:33;;;;;;;10.00;5.63;;;4.30;99.90;;;;;;4996485;28;20218;-75
2023/12/18 04:10:59;;;;;;;8.00;4.87;;;4.30;99.90;;;;;;4987055;28;20453;-74
2023/12/18 04:13:24;;;;;;;10.70;5.97;;;4.30;99.90;;;;;;4984932;28;20314;-75
2023/12/18 04:15:51;;;;;;;14.70;7.10;;;4.20;99.90;;;;;;4992053;28;20704;-75
2023/12/18 04:18:16;;;;;;;9.23;5.73;;;4.20;99.90;;;;;;4997251;28;20218;-75
2023/12/18 04:20:42;;;;;;;10.10;6.47;;;4.20;99.90;;;;;;4982283;28;20457;-75
2023/12/18 04:23:08;;;;;;;7.70;5.47;;;4.20;99.90;;;;;;4979625;28;20596;-75
2023/12/18 04:25:34;;;;;;;10.60;6.50;;;4.20;99.90;;;;;;4981162;28;20245;-75
2023/12/18 04:28:00;;;;;;;12.43;6.10;;;4.30;99.90;;;;;;5004515;28;20244;-75
2023/12/18 04:30:25;;;;;;;9.27;6.10;;;4.30;99.90;;;;;;4990824;28;20504;-75
2023/12/18 04:32:51;;;;;;;10.00;5.70;;;4.30;99.90;;;;;;4986667;28;20217;-75
2023/12/18 04:35:17;;;;;;;10.03;6.07;;;4.30;99.90;;;;;;4993072;28;20687;-75
2023/12/18 04:37:42;;;;;;;10.30;5.97;;;4.20;99.90;;;;;;4989451;28;20231;-75
2023/12/18 04:40:09;;;;;;;12.50;7.00;;;4.30;99.90;;;;;;4999518;28;20699;-75
2023/12/18 04:42:35;;;;;;;10.60;5.73;;;4.20;99.90;;;;;;5001380;28;20308;-75
2023/12/18 04:45:00;;;;;;;9.77;6.10;;;4.20;99.90;;;;;;5000530;28;20607;-75
2023/12/18 04:47:26;;;;;;;8.63;5.30;;;4.20;99.90;;;;;;5004835;28;20232;-75
2023/12/18 04:49:52;;;;;;;10.87;6.37;;;4.20;99.90;;;;;;5015146;28;20253;-76
2023/12/18 04:52:17;;;;;;;12.53;7.30;;;4.20;99.90;;;;;;4990241;28;20214;-76
2023/12/18 04:54:43;;;;;;;9.50;6.53;;;4.20;99.90;;;;;;4982515;28;20228;-76
2023/12/18 04:57:09;;;;;;;10.67;6.00;;;4.20;99.90;;;;;;4995031;28;20241;-76
2023/12/18 04:59:34;;;;;;;10.33;6.13;;;4.10;99.90;;;;;;4979565;28;20223;-75
2023/12/18 05:02:00;;;;;;;10.93;6.40;;;4.20;99.90;;;;;;4994974;28;20213;-76
2023/12/18 05:04:26;;;;;;;13.90;6.77;;;4.10;99.90;;;;;;5001178;28;20222;-76
2023/12/18 05:06:51;;;;;;;9.83;5.30;;;4.10;99.90;;;;;;4998062;28;20731;-75
2023/12/18 05:09:17;;;;;;;8.03;5.20;;;4.10;99.90;;;;;;4985392;28;20218;-75
2023/12/18 05:11:43;;;;;;;8.37;6.03;;;4.00;99.90;;;;;;4998677;28;20214;-75
2023/12/18 05:14:08;;;;;;;9.40;6.13;;;4.10;99.90;;;;;;5000179;28;20688;-75
2023/12/18 05:16:34;;;;;;;8.43;5.60;;;4.10;99.90;;;;;;4998793;28;20222;-74
2023/12/18 05:19:00;;;;;;;9.53;5.30;;;4.10;99.90;;;;;;4996451;28;20218;-73
2023/12/18 05:21:26;;;;;;;12.23;7.00;;;4.10;99.90;;;;;;4994860;28;20253;-75
2023/12/18 05:23:51;;;;;;;7.23;5.67;;;4.10;99.90;;;;;;5003439;28;20218;-75
2023/12/18 05:26:17;;;;;;;8.70;5.97;;;4.10;99.90;;;;;;4999583;28;20232;-75
2023/12/18 05:28:43;;;;;;;16.07;5.33;;;4.10;99.90;;;;;;5001110;28;20685;-75
2023/12/18 05:31:10;;;;;;;9.57;6.30;;;4.00;99.90;;;;;;4979975;28;20587;-75
2023/12/18 05:33:35;;;;;;;8.10;5.23;;;4.00;99.90;;;;;;4987337;28;20243;-75
2023/12/18 05:36:01;;;;;;;11.20;5.50;;;4.00;99.90;;;;;;4980878;28;20714;-75
2023/12/18 05:38:27;;;;;;;9.47;5.93;;;4.00;99.90;;;;;;4995045;28;20219;-75
2023/12/18 05:40:52;;;;;;;9.63;5.23;;;3.90;99.90;;;;;;4980550;28;20582;-75
2023/12/18 05:43:18;;;;;;;8.87;5.37;;;3.80;99.90;;;;;;4991729;28;20214;-75
2023/12/18 05:45:44;;;;;;;9.70;6.37;;;3.80;99.90;;;;;;4990621;28;20219;-75
2023/12/18 05:48:09;;;;;;;9.50;6.17;;;3.90;99.90;;;;;;4982178;28;20219;-75
2023/12/18 05:50:35;;;;;;;7.80;5.40;;;3.90;99.90;;;;;;4984169;28;20225;-75
2023/12/18 05:53:01;;;;;;;10.10;5.43;;;3.80;99.90;;;;;;4981460;28;20213;-74
2023/12/18 05:55:26;;;;;;;8.03;4.80;;;3.80;99.90;;;;;;4998883;28;20629;-75
2023/12/18 05:57:52;;;;;;;9.80;5.63;;;3.90;99.90;;;;;;5001734;28;20222;-74
2023/12/18 06:00:19;;;;;;;7.60;4.73;;;3.90;99.90;;;;;;4981889;28;20334;-75
2023/12/18 06:02:45;;;;;;;8.47;5.53;;;3.90;99.90;;;;;;4994878;28;20270;-75
2023/12/18 06:05:10;;;;;;;10.73;5.53;;;3.70;99.90;;;;;;4993764;28;20947;-74
2023/12/18 06:07:36;;;;;;;8.00;4.80;;;3.50;99.90;;;;;;4998943;28;20250;-74
2023/12/18 06:10:02;;;;;;;7.30;4.90;;;3.30;99.90;;;;;;4979317;28;20308;-74
2023/12/18 06:12:28;;;;;;;9.97;6.03;;;3.30;99.90;;;;;;4986677;28;20232;-75
2023/12/18 06:14:53;;;;;;;9.20;5.60;;;3.40;99.90;;;;;;4997520;28;20217;-75
2023/12/18 06:17:19;;;;;;;8.47;5.37;;;3.30;99.90;;;;;;4999780;28;20228;-75
2023/12/18 06:19:45;;;;;;;9.27;5.20;;;3.30;99.90;;;;;;4980132;28;20308;-75
2023/12/18 06:22:11;;;;;;;8.70;5.27;;;3.40;99.90;;;;;;4992232;28;20660;-75
2023/12/18 06:24:40;;;;;;;10.80;6.27;;;3.50;99.90;;;;;;4994511;28;20222;-74
2023/12/18 06:27:06;;;;;;;8.80;5.53;;;3.60;99.90;;;;;;4989084;28;20471;-75
2023/12/18 06:29:31;;;;;;;10.10;6.50;;;3.60;99.90;;;;;;4998559;28;20461;-75
2023/12/18 06:31:57;;;;;;;9.37;5.90;;;3.60;99.90;;;;;;4989088;28;20699;-74
2023/12/18 06:34:23;;;;;;;9.03;5.40;;;3.60;99.90;;;;;;4979770;28;20219;-75
2023/12/18 06:36:49;;;;;;;7.57;4.77;;;3.50;99.90;;;;;;4998130;28;20477;-75
2023/12/18 06:39:15;;;;;;;6.30;4.93;;;3.60;99.90;;;;;;4998362;28;20467;-76
2023/12/18 06:41:41;;;;;;;10.80;6.30;;;3.60;99.90;;;;;;4999954;28;20253;-75
2023/12/18 06:44:06;;;;;;;7.83;5.27;;;3.70;99.90;;;;;;4991234;28;20216;-75
2023/12/18 06:46:33;;;;;;;8.30;6.00;;;3.70;99.90;;;;;;4994721;28;20232;-74
2023/12/18 06:49:00;;;;;;;7.57;5.50;;;3.60;99.90;;;;;;4997397;28;20303;-75
2023/12/18 06:51:26;;;;;;;7.63;5.00;;;3.60;99.90;;;;;;4974904;28;20501;-75
2023/12/18 06:53:52;;;;;;;7.07;5.20;;;3.60;99.90;;;;;;5001593;28;21121;-75
2023/12/18 06:56:17;;;;;;;8.07;5.53;;;3.60;99.90;;;;;;4997940;28;20260;-76
2023/12/18 06:58:43;;;;;;;9.00;5.97;;;3.60;99.90;;;;;;4994977;28;20249;-75
2023/12/18 07:01:09;;;;;;;9.67;5.70;;;3.60;99.90;;;;;;5001193;28;20308;-75
2023/12/18 07:03:35;;;;;;;7.60;5.40;;;3.60;99.90;;;;;;4997424;28;20304;-75
2023/12/18 07:06:02;;;;;;;8.10;4.83;;;3.50;99.90;;;;;;5001469;28;20591;-75
2023/12/18 07:08:29;;;;;;;7.17;5.20;;;3.60;99.90;;;;;;4991986;28;20238;-76
2023/12/18 07:10:57;;;;;;;7.53;4.47;;;3.60;99.90;;;;;;4993756;28;20475;-75
2023/12/18 07:13:23;;;;;;;8.20;5.60;;;3.60;99.90;;;;;;5002346;28;20494;-75
2023/12/18 07:15:48;;;;;;;5.30;4.13;;;3.60;99.90;;;;;;4997463;28;20454;-75
2023/12/18 07:18:14;;;;;;;10.43;6.13;;;3.60;99.90;;;;;;4993922;28;20488;-75
2023/12/18 07:20:41;;;;;;;7.27;5.13;;;3.60;99.90;;;;;;4991179;28;20214;-74
2023/12/18 07:23:07;;;;;;;9.83;6.23;;;3.50;99.90;;;;;;4983197;28;20217;-75
2023/12/18 07:25:32;;;;;;;6.37;5.17;;;3.50;99.90;;;;;;5003113;28;21109;-75
2023/12/18 07:27:58;;;;;;;7.00;5.20;;;3.50;99.90;;;;;;4980503;28;20766;-74
2023/12/18 07:30:24;;;;;;;7.60;5.30;;;3.50;99.90;;;;;;4991624;28;20237;-75
2023/12/18 07:32:50;;;;;;;10.30;5.90;;;3.50;99.90;;;;;;4985461;28;20837;-75
2023/12/18 07:35:16;;;;;;;8.13;5.17;;;3.40;99.90;;;;;;4989745;28;20214;-75
2023/12/18 07:37:41;;;;;;;6.83;5.40;;;3.40;99.90;;;;;;4982429;28;20600;-75
2023/12/18 07:40:07;;;;;;;8.10;5.23;;;3.40;99.90;;;;;;5000435;28;20218;-75
2023/12/18 07:42:33;;;;;;;8.27;5.13;;;3.40;99.90;;;;;;4998673;28;20218;-74
2023/12/18 07:44:59;;;;;;;7.70;5.07;;;3.40;99.90;;;;;;4990600;28;20843;-75
2023/12/18 07:47:25;;;;;;;8.17;4.97;;;3.50;99.90;;;;;;4990835;28;20223;-75
2023/12/18 07:49:50;;;;;;;6.50;4.43;;;3.40;99.90;;;;;;5003296;28;20229;-75
2023/12/18 07:52:16;;;;;;;7.37;4.60;;;3.40;99.90;;;;;;4973640;28;20230;-75
2023/12/18 07:54:42;;;;;;;8.70;5.30;;;3.50;99.90;;;;;;4996332;28;20221;-74
2023/12/18 07:57:08;;;;;;;6.13;4.53;;;3.50;99.90;;;;;;4992118;28;20482;-75
2023/12/18 07:59:39;;;;;;;6.53;4.40;;;3.50;99.90;;;;;;5002334;28;20626;-75
2023/12/18 08:02:07;;;;;;;8.07;5.43;;;3.50;99.90;;;;;;4997353;28;20214;-74
2023/12/18 08:04:33;;;;;;;6.70;4.77;;;3.50;99.90;;;;;;4994490;28;20465;-74
2023/12/18 08:06:58;;;;;;;9.80;5.90;;;3.50;99.90;;;;;;4997780;28;20464;-75
2023/12/18 08:09:26;;;;;;;5.43;3.90;;;3.50;99.90;;;;;;4990004;28;20479;-75
2023/12/18 08:11:53;;;;;;;6.77;4.87;;;3.50;99.90;;;;;;4992871;28;20238;-75
2023/12/18 08:14:18;;;;;;;5.60;4.10;;;3.40;99.90;;;;;;4985647;28;20453;-75
2023/12/18 08:16:44;;;;;;;6.93;4.50;;;3.40;99.90;;;;;;4992000;28;21139;-74
2023/12/18 08:19:10;;;;;;;7.57;4.53;;;3.40;99.90;;;;;;4991903;28;20262;-75
2023/12/18 08:21:35;;;;;;;7.30;4.37;;;3.30;99.90;;;;;;4994565;28;20238;-75
2023/12/18 08:24:01;;;;;;;8.63;5.40;;;3.30;99.90;;;;;;4998287;28;20210;-75
2023/12/18 08:26:27;;;;;;;7.77;4.80;;;3.40;99.90;;;;;;4994753;28;20361;-75
2023/12/18 08:28:53;;;;;;;7.53;4.30;;;3.40;99.90;;;;;;4987241;28;20575;-75
2023/12/18 08:31:18;;;;;;;8.00;4.67;;;3.40;99.90;;;;;;4995995;28;20302;-75
2023/12/18 08:33:44;;;;;;;6.03;4.50;;;3.40;99.90;;;;;;5001992;28;20253;-75
2023/12/18 08:36:10;;;;;;;7.73;5.90;;;3.40;99.90;;;;;;5001327;28;20222;-75
2023/12/18 08:38:35;;;;;;;6.93;5.30;;;3.40;99.90;;;;;;4999815;28;20218;-75
2023/12/18 08:41:01;;;;;;;7.73;4.60;;;3.40;99.90;;;;;;4978533;28;20225;-74
2023/12/18 08:43:27;;;;;;;6.90;5.07;;;3.40;99.90;;;;;;4998799;28;20221;-75
2023/12/18 08:45:53;;;;;;;6.33;4.90;;;3.40;99.90;;;;;;4981437;28;20268;-75
2023/12/18 08:48:18;;;;;;;5.27;3.77;;;3.40;99.90;;;;;;4991902;28;20211;-75
2023/12/18 08:50:44;;;;;;;5.13;4.23;;;3.20;99.90;;;;;;4987343;28;20234;-75
2023/12/18 08:53:10;;;;;;;4.57;3.83;;;3.20;99.90;;;;;;4993309;28;20222;-74
2023/12/18 08:55:39;;;;;;;7.03;5.13;;;3.20;99.90;;;;;;4994260;28;20218;-75
2023/12/18 08:58:08;;;;;;;9.20;4.63;;;3.30;99.90;;;;;;4982734;28;20465;-75
2023/12/18 09:00:34;;;;;;;5.20;3.97;;;3.30;99.90;;;;;;4988819;28;20481;-76
2023/12/18 09:03:00;;;;;;;9.87;5.77;;;3.30;99.90;;;;;;4997549;28;20485;-74
2023/12/18 09:05:25;;;;;;;16.23;7.63;;;3.20;99.90;;;;;;4982317;28;20460;-75
2023/12/18 09:07:51;;;;;;;9.10;6.30;;;3.20;99.90;;;;;;4986829;28;20671;-75
2023/12/18 09:10:24;;;;;;;10.73;6.73;;;3.30;99.90;;;;;;4988560;28;20218;-75
2023/12/18 09:12:51;;;;;;;22.23;9.93;;;3.30;99.90;;;;;;4996211;28;20222;-75
2023/12/18 09:15:17;;;;;;;11.27;6.30;;;3.30;99.90;;;;;;4997799;28;20454;-74
2023/12/18 09:17:42;;;;;;;11.30;7.30;;;3.40;99.90;;;;;;4993941;28;20472;-74
2023/12/18 09:20:08;;;;;;;7.83;5.67;;;3.30;99.90;;;;;;4998874;28;20226;-75
2023/12/18 09:22:35;;;;;;;7.57;5.60;;;3.30;99.90;;;;;;4988830;28;20877;-75
2023/12/18 09:25:01;;;;;;;7.00;4.60;;;3.30;99.90;;;;;;4984778;28;20461;-74
2023/12/18 09:27:27;;;;;;;5.77;4.00;;;3.30;99.90;;;;;;4996833;28;20476;-75
2023/12/18 09:29:52;;;;;;;6.87;5.27;;;3.30;99.90;;;;;;5003089;28;20237;-75
2023/12/18 09:32:18;;;;;;;10.57;6.40;;;3.30;99.90;;;;;;4983273;28;20305;-75
2023/12/18 09:34:44;;;;;;;11.57;7.27;;;3.30;99.90;;;;;;4994276;28;20214;-75
2023/12/18 09:37:09;;;;;;;10.47;6.43;;;3.40;99.90;;;;;;4999393;28;20230;-75
2023/12/18 09:39:35;;;;;;;9.60;6.60;;;3.40;99.90;;;;;;4996436;28;20307;-75
2023/12/18 09:42:02;;;;;;;10.27;6.70;;;3.40;99.90;;;;;;4988997;28;20297;-75
2023/12/18 09:44:31;;;;;;;7.70;5.87;;;3.50;99.90;;;;;;4992766;28;20463;-75
2023/12/18 09:46:58;;;;;;;10.23;5.27;;;3.50;99.90;;;;;;4991004;28;20466;-75
2023/12/18 09:49:24;;;;;;;12.70;6.50;;;3.40;99.90;;;;;;4984548;28;20465;-75
2023/12/18 09:51:53;;;;;;;9.80;6.03;;;3.40;99.90;;;;;;4976513;28;20456;-75
2023/12/18 09:54:20;;;;;;;7.50;5.80;;;3.40;99.90;;;;;;4999352;28;20461;-75
2023/12/18 09:56:48;;;;;;;8.90;6.30;;;3.40;99.90;;;;;;4995822;28;20483;-74
2023/12/18 09:59:16;;;;;;;9.53;5.53;;;3.50;99.90;;;;;;4990987;28;20464;-75
2023/12/18 10:01:43;;;;;;;10.93;5.87;;;3.50;99.90;;;;;;4997372;28;20552;-75
2023/12/18 10:04:09;;;;;;;9.50;6.13;;;3.50;99.90;;;;;;4998733;28;20449;-74
2023/12/18 10:06:34;;;;;;;7.37;5.60;;;3.50;99.90;;;;;;4991551;28;20468;-75
2023/12/18 10:09:13;;;;;;;11.87;7.37;;;3.40;99.90;;;;;;4977569;28;20230;-75
2023/12/18 10:11:40;;;;;;;10.80;5.60;;;3.40;99.90;;;;;;4992727;28;20209;-76
2023/12/18 10:14:06;;;;;;;10.50;6.23;;;3.40;99.90;;;;;;4993166;28;20487;-75
2023/12/18 10:16:32;;;;;;;9.80;6.10;;;3.40;99.90;;;;;;4991830;28;20482;-75
2023/12/18 10:18:58;;;;;;;12.80;6.67;;;3.40;99.90;;;;;;4987353;28;20221;-74
2023/12/18 10:21:24;;;;;;;10.50;5.83;;;3.40;99.90;;;;;;4984585;28;20460;-74
2023/12/18 10:23:54;;;;;;;10.63;6.50;;;3.40;99.90;;;;;;4993253;28;20461;-75
2023/12/18 10:26:20;;;;;;;8.80;5.70;;;3.30;99.90;;;;;;4993427;28;20457;-75
2023/12/18 10:28:51;;;;;;;9.93;5.97;;;3.40;99.90;;;;;;4988060;28;20453;-75
2023/12/18 10:31:18;;;;;;;12.97;6.90;;;3.40;99.90;;;;;;4996504;28;20453;-75
2023/12/18 10:33:44;;;;;;;8.93;5.70;;;3.40;99.90;;;;;;4999147;28;20488;-75
2023/12/18 10:36:10;;;;;;;8.03;6.13;;;3.30;99.90;;;;;;5002991;28;20453;-75
2023/12/18 10:38:41;;;;;;;13.30;6.73;;;3.40;99.90;;;;;;5006609;28;20453;-75
2023/12/18 10:41:09;;;;;;;12.70;7.53;;;3.30;99.90;;;;;;4999075;28;20222;-75
2023/12/18 10:43:36;;;;;;;9.77;5.73;;;3.40;99.90;;;;;;5005014;28;20450;-75
2023/12/18 10:46:05;;;;;;;10.80;6.50;;;3.30;99.90;;;;;;4998374;28;20461;-75
2023/12/18 10:48:32;;;;;;;9.60;6.37;;;3.30;99.90;;;;;;5003965;28;20954;-75
2023/12/18 10:51:01;;;;;;;11.47;6.40;;;3.40;99.90;;;;;;4995147;28;20603;-75
2023/12/18 10:53:28;;;;;;;10.70;6.33;;;3.40;99.90;;;;;;4995628;28;20452;-75
2023/12/18 10:55:58;;;;;;;14.73;7.17;;;3.40;99.90;;;;;;4998437;28;20469;-75
2023/12/18 10:58:23;;;;;;;8.83;5.50;;;3.40;99.90;;;;;;4981253;28;20456;-75
2023/12/18 11:00:51;;;;;;;10.57;6.80;;;3.40;99.90;;;;;;4982132;28;20491;-75
2023/12/18 11:03:18;;;;;;;10.30;6.50;;;3.40;99.90;;;;;;4991344;28;20221;-76
2023/12/18 11:05:46;;;;;;;9.13;6.13;;;3.50;99.90;;;;;;4998542;28;20468;-75
2023/12/18 11:08:12;;;;;;;11.27;6.50;;;3.50;99.90;;;;;;4992933;28;20514;-75
2023/12/18 11:10:38;;;;;;;11.87;6.70;;;3.50;99.90;;;;;;4990533;28;20473;-75
2023/12/18 11:13:24;;;;;;;10.63;6.40;;;3.50;99.90;;;;;;4992533;28;20460;-75
2023/12/18 11:15:59;;;;;;;9.47;6.67;;;3.50;99.90;;;;;;4987604;28;20453;-75
2023/12/18 11:18:29;;;;;;;10.17;5.73;;;3.40;99.90;;;;;;4990226;28;20453;-75
2023/12/18 11:20:57;;;;;;;10.50;6.90;;;3.50;99.90;;;;;;4988735;28;20460;-75
2023/12/18 11:23:26;;;;;;;11.10;6.63;;;3.50;99.90;;;;;;4995375;28;20484;-75
2023/12/18 11:25:52;;;;;;;10.83;6.97;;;3.60;99.90;;;;;;4995633;28;20466;-74
2023/12/18 11:28:24;;;;;;;8.57;6.27;;;3.60;99.90;;;;;;4999174;28;20458;-75
2023/12/18 11:30:50;;;;;;;8.97;6.70;;;3.60;99.90;;;;;;4995138;28;20294;-75
2023/12/18 11:33:16;;;;;;;10.63;7.37;;;3.60;99.90;;;;;;4984027;28;20552;-75
2023/12/18 11:35:48;;;;;;;11.00;6.23;;;3.60;99.90;;;;;;5005566;28;20217;-75
2023/12/18 11:38:18;;;;;;;8.70;6.27;;;3.60;99.90;;;;;;4982473;28;20473;-75
2023/12/18 11:40:44;;;;;;;12.33;6.60;;;3.60;99.90;;;;;;4994821;28;20477;-75
2023/12/18 11:43:12;;;;;;;11.50;6.63;;;3.70;99.90;;;;;;4979276;28;20468;-75
2023/12/18 11:45:40;;;;;;;8.23;5.70;;;3.70;99.90;;;;;;4995489;28;20480;-74
2023/12/18 11:48:07;;;;;;;8.40;5.87;;;3.70;99.90;;;;;;4983986;28;20508;-75
2023/12/18 11:50:38;;;;;;;13.13;7.47;;;3.80;99.90;;;;;;4996580;28;20464;-75
2023/12/18 11:53:30;;;;;;;7.40;5.70;;;3.80;99.90;;;;;;4986247;28;20962;-75
2023/12/18 11:55:56;;;;;;;11.80;7.20;;;3.80;99.90;;;;;;4992790;28;20468;-75
2023/12/18 11:58:26;;;;;;;11.60;6.93;;;3.80;99.90;;;;;;4997569;28;20454;-76
2023/12/18 12:00:52;;;;;;;11.40;7.30;;;3.80;99.90;;;;;;4980649;28;20214;-75
2023/12/18 12:03:18;;;;;;;10.13;7.07;;;3.80;99.90;;;;;;4990823;28;20613;-75
2023/12/18 12:05:46;;;;;;;16.23;7.80;;;3.80;99.90;;;;;;4996042;28;20512;-75
2023/12/18 12:08:12;;;;;;;8.43;6.60;;;3.80;99.90;;;;;;4996706;28;20454;-75
2023/12/18 12:10:47;;;;;;;10.37;6.37;;;3.90;99.90;;;;;;5002364;28;20807;-75
2023/12/18 12:13:20;;;;;;;12.80;7.87;;;3.90;99.90;;;;;;4982144;28;20221;-75
2023/12/18 12:15:52;;;;;;;11.50;7.00;;;3.90;99.90;;;;;;4995789;28;20491;-75
2023/12/18 12:18:18;;;;;;;11.03;7.47;;;3.90;99.90;;;;;;4991615;28;20800;-75
2023/12/18 12:20:44;;;;;;;11.80;7.10;;;3.90;99.90;;;;;;5004614;28;20499;-75
2023/12/18 12:23:09;;;;;;;10.90;7.10;;;4.00;99.90;;;;;;4996800;28;20218;-75
2023/12/18 12:25:35;;;;;;;12.80;7.60;;;4.00;99.90;;;;;;4991956;28;20496;-75
2023/12/18 12:28:01;;;;;;;10.87;7.17;;;3.90;99.90;;;;;;4989448;28;20221;-75
2023/12/18 12:30:26;;;;;;;16.10;7.87;;;3.90;99.90;;;;;;5002432;28;20225;-75
2023/12/18 12:32:52;;;;;;;13.23;7.60;;;3.90;99.90;;;;;;4979195;28;20222;-75
2023/12/18 12:35:18;;;;;;;11.97;6.90;;;3.90;99.90;;;;;;4991808;28;20233;-75
2023/12/18 12:37:45;;;;;;;13.03;8.20;;;4.00;99.90;;;;;;5004266;28;20751;-75
2023/12/18 12:40:11;;;;;;;14.10;7.93;;;4.00;99.90;;;;;;4971867;28;20259;-75
2023/12/18 12:42:41;;;;;;;10.07;7.80;;;4.00;99.90;;;;;;4986766;28;20982;-75
2023/12/18 12:45:09;;;;;;;13.00;8.60;;;4.00;99.90;;;;;;4995975;28;20286;-75
2023/12/18 12:47:35;;;;;;;13.10;8.00;;;4.00;99.90;;;;;;4996573;28;20530;-75